createdAt,value
2022-08-16T17:11:37.350Z,28.01
2022-08-16T17:14:17.393Z,27.89
2022-08-16T17:16:48.679Z,27.83
2022-08-16T17:19:24.088Z,27.78
2022-08-16T17:21:58.868Z,27.73
2022-08-16T17:24:39.526Z,27.67
2022-08-16T17:27:11.220Z,27.62
2022-08-16T17:29:46.267Z,27.56
2022-08-16T17:32:47.018Z,27.50
2022-08-16T17:34:55.348Z,27.45
2022-08-16T17:37:42.342Z,27.39
2022-08-16T17:40:36.057Z,27.33
2022-08-16T17:42:47.850Z,27.27
2022-08-16T17:45:18.173Z,27.16
2022-08-16T17:47:51.733Z,27.12
2022-08-16T17:50:26.578Z,27.08
2022-08-16T17:53:01.095Z,27.03
2022-08-16T17:55:37.217Z,26.98
2022-08-16T17:58:22.781Z,26.96
2022-08-16T18:00:52.367Z,26.89
2022-08-16T18:04:02.722Z,26.81
2022-08-16T18:06:04.063Z,26.75
2022-08-16T18:08:37.909Z,26.69
2022-08-16T18:11:13.547Z,26.66
2022-08-16T18:13:47.279Z,26.56
2022-08-16T18:16:20.816Z,26.49
2022-08-16T18:18:53.949Z,26.42
2022-08-16T18:21:44.564Z,26.35
2022-08-16T18:24:19.118Z,26.30
2022-08-16T18:26:52.257Z,26.24
2022-08-16T18:29:25.603Z,26.16
2022-08-16T18:31:58.833Z,26.07
2022-08-16T18:34:32.736Z,26.02
2022-08-16T18:37:07.402Z,25.97
2022-08-16T18:39:42.263Z,25.93
2022-08-16T18:42:17.079Z,25.89
2022-08-16T18:44:50.329Z,25.87
2022-08-16T18:47:26.011Z,25.84
2022-08-16T18:49:59.370Z,25.79
2022-08-16T18:52:33.795Z,25.75
2022-08-16T18:55:14.832Z,25.67
2022-08-16T18:57:43.294Z,25.62
2022-08-16T19:00:19.831Z,25.58
2022-08-16T19:02:58.917Z,25.52
2022-08-16T19:05:34.192Z,25.46
2022-08-16T19:08:08.391Z,25.40
2022-08-16T19:10:43.147Z,25.39
2022-08-16T19:13:21.465Z,25.35
2022-08-16T19:15:56.798Z,25.30
2022-08-16T19:18:36.609Z,25.28
2022-08-16T19:21:14.667Z,25.23
2022-08-16T19:23:54.957Z,25.15
2022-08-16T19:26:29.508Z,25.07
2022-08-16T19:29:08.415Z,24.98
2022-08-16T19:31:41.134Z,24.93
2022-08-16T19:34:18.925Z,24.84
2022-08-16T19:36:54.382Z,24.76
2022-08-16T19:39:32.423Z,24.71
2022-08-16T19:42:05.109Z,24.67
2022-08-16T19:44:38.233Z,24.61
2022-08-16T19:47:14.650Z,24.55
2022-08-16T19:49:48.849Z,24.49
2022-08-16T19:52:24.559Z,24.44
2022-08-16T19:55:02.441Z,24.45
2022-08-16T19:57:39.254Z,24.45
2022-08-16T20:00:19.112Z,24.46
2022-08-16T20:02:54.380Z,24.47
2022-08-16T20:05:32.878Z,24.48
2022-08-16T20:08:07.612Z,24.49
2022-08-16T20:10:43.762Z,24.52
2022-08-16T20:13:19.368Z,24.53
2022-08-16T20:15:53.327Z,24.48
2022-08-16T20:18:26.632Z,24.46
2022-08-16T20:21:00.362Z,24.22
2022-08-16T20:23:33.474Z,24.36
2022-08-16T20:26:08.869Z,24.33
2022-08-16T20:28:54.130Z,24.29
2022-08-16T20:31:18.312Z,24.24
2022-08-16T20:33:52.949Z,24.22
2022-08-16T20:36:26.508Z,24.16
2022-08-16T20:39:03.088Z,24.12
2022-08-16T20:41:38.359Z,24.07
2022-08-16T20:44:13.752Z,24.03
2022-08-16T20:46:49.084Z,23.99
2022-08-16T20:49:22.150Z,23.86
2022-08-16T20:51:59.313Z,23.75
2022-08-16T20:54:31.852Z,23.64
2022-08-16T20:57:05.674Z,23.49
2022-08-16T20:59:40.010Z,23.41
2022-08-16T21:02:15.276Z,23.36
2022-08-16T21:04:48.257Z,23.46
2022-08-16T21:07:23.176Z,23.56
2022-08-16T21:09:56.249Z,23.61
2022-08-16T21:12:33.794Z,23.61
2022-08-16T21:15:12.423Z,23.62
2022-08-16T21:17:45.956Z,23.62
2022-08-16T21:20:19.546Z,23.63
2022-08-16T21:22:57.683Z,23.58
2022-08-16T21:25:34.843Z,23.56
2022-08-16T21:28:38.820Z,23.54
2022-08-16T21:30:47.084Z,23.47
2022-08-16T21:33:21.825Z,23.41
2022-08-16T21:35:55.451Z,23.43
2022-08-16T21:38:30.755Z,23.40
2022-08-16T21:41:06.032Z,23.35
2022-08-16T21:43:39.091Z,23.36
2022-08-16T21:46:12.314Z,23.35
2022-08-16T21:48:46.732Z,23.33
2022-08-16T21:51:19.905Z,23.27
2022-08-16T21:53:53.206Z,23.26
2022-08-16T21:56:26.305Z,23.21
2022-08-16T21:58:59.611Z,23.14
2022-08-16T22:01:34.327Z,23.07
2022-08-16T22:04:36.639Z,23.01
2022-08-16T22:06:44.648Z,22.84
2022-08-16T22:09:17.942Z,22.68
2022-08-16T22:11:51.442Z,22.63
2022-08-16T22:14:24.802Z,22.59
2022-08-16T22:16:57.896Z,22.61
2022-08-16T22:19:31.029Z,22.66
2022-08-16T22:22:04.240Z,22.67
2022-08-16T22:24:37.442Z,22.65
2022-08-16T22:27:10.620Z,22.56
2022-08-16T22:29:47.066Z,22.47
2022-08-16T22:32:20.168Z,22.43
2022-08-16T22:34:53.444Z,22.43
2022-08-16T22:37:28.291Z,22.45
2022-08-16T22:40:01.515Z,22.43
2022-08-16T22:42:34.826Z,22.44
2022-08-16T22:45:09.375Z,22.46
2022-08-16T22:47:42.591Z,22.43
2022-08-16T22:50:16.487Z,22.40
2022-08-16T22:52:56.571Z,22.36
2022-08-16T22:55:27.756Z,22.33
2022-08-16T22:58:01.047Z,22.30
2022-08-16T23:00:35.510Z,22.26
2022-08-16T23:03:11.325Z,22.21
2022-08-16T23:05:50.427Z,22.17
2022-08-16T23:08:32.259Z,22.11
2022-08-16T23:11:01.822Z,22.10
2022-08-16T23:13:35.024Z,22.10
2022-08-16T23:16:11.425Z,22.08
2022-08-16T23:18:45.124Z,22.08
2022-08-16T23:21:19.091Z,22.09
2022-08-16T23:23:52.945Z,22.05
2022-08-16T23:26:45.141Z,22.03
2022-08-16T23:29:00.942Z,21.98
2022-08-16T23:31:34.638Z,21.93
2022-08-16T23:34:07.646Z,21.92
2022-08-16T23:36:40.788Z,21.87
2022-08-16T23:39:13.951Z,21.82
2022-08-16T23:41:47.093Z,21.79
2022-08-16T23:44:55.019Z,21.78
2022-08-16T23:50:32.872Z,21.82
2022-08-16T23:53:10.249Z,21.64
2022-08-16T23:55:46.392Z,21.64
2022-08-16T23:58:22.115Z,21.60
